Time;durP1;ratioP1;P1;durP2;ratioP2;P2;SDS_P1;SDS_P2;PMS_P1;PMS_P2;Temp;Humidity;BMP_temperature;BMP_pressure;BME280_temperature;BME280_humidity;BME280_pressure;Samples;Min_cycle;Max_cycle;Signal;HPM_P1;HPM_P2
2022/08/06 00:02:25;;;;;;;1.80;1.70;;;;;;;;;;5075461;28;20259;-84
2022/08/06 00:04:54;;;;;;;1.75;1.65;;;;;;;;;;5075295;28;20208;-84
2022/08/06 00:07:21;;;;;;;4.35;1.80;;;;;;;;;;5074889;28;20239;-85
2022/08/06 00:09:48;;;;;;;3.85;2.33;;;;;;;;;;5075662;28;20232;-84
2022/08/06 00:12:15;;;;;;;1.88;1.75;;;;;;;;;;5074508;28;20228;-84
2022/08/06 00:14:42;;;;;;;1.63;1.52;;;;;;;;;;5075470;28;20228;-84
2022/08/06 00:17:09;;;;;;;3.20;1.70;;;;;;;;;;5075453;28;20228;-84
2022/08/06 00:19:36;;;;;;;3.33;2.10;;;;;;;;;;5075424;28;20217;-84
2022/08/06 00:22:04;;;;;;;3.63;1.88;;;;;;;;;;5074636;28;20916;-84
2022/08/06 00:24:32;;;;;;;1.70;1.58;;;;;;;;;;5075352;28;20205;-84
2022/08/06 00:26:59;;;;;;;1.77;1.60;;;;;;;;;;5074852;28;20271;-84
2022/08/06 00:29:26;;;;;;;3.58;2.10;;;;;;;;;;5075039;28;20229;-84
2022/08/06 00:31:53;;;;;;;2.20;1.80;;;;;;;;;;5074504;28;20666;-85
2022/08/06 00:34:20;;;;;;;4.17;2.10;;;;;;;;;;5075292;28;20236;-84
2022/08/06 00:36:47;;;;;;;1.87;1.77;;;;;;;;;;5074716;28;20315;-84
2022/08/06 00:39:15;;;;;;;1.80;1.60;;;;;;;;;;5075183;28;20233;-84
2022/08/06 00:41:42;;;;;;;1.70;1.53;;;;;;;;;;5074867;28;20576;-85
2022/08/06 00:44:09;;;;;;;3.00;1.90;;;;;;;;;;5076015;28;20213;-84
2022/08/06 00:46:36;;;;;;;2.45;1.70;;;;;;;;;;5076644;28;20262;-84
2022/08/06 00:49:03;;;;;;;2.73;1.73;;;;;;;;;;5074787;28;20232;-85
2022/08/06 00:51:30;;;;;;;2.53;2.00;;;;;;;;;;5074743;28;20201;-85
2022/08/06 00:53:57;;;;;;;1.40;1.37;;;;;;;;;;5074464;28;20237;-84
2022/08/06 00:56:26;;;;;;;2.80;1.60;;;;;;;;;;5075079;28;20213;-84
2022/08/06 00:58:53;;;;;;;2.90;2.10;;;;;;;;;;5075047;28;20334;-85
2022/08/06 01:01:20;;;;;;;1.73;1.63;;;;;;;;;;5075453;28;20289;-85
2022/08/06 01:03:47;;;;;;;1.90;1.80;;;;;;;;;;5071494;28;20244;-85
2022/08/06 01:06:14;;;;;;;4.30;1.87;;;;;;;;;;5067356;28;20734;-85
2022/08/06 01:08:41;;;;;;;3.03;1.67;;;;;;;;;;5054060;28;20610;-85
2022/08/06 01:11:08;;;;;;;2.87;2.10;;;;;;;;;;5054641;28;20205;-85
2022/08/06 01:13:37;;;;;;;3.27;1.60;;;;;;;;;;5054052;28;20234;-85
2022/08/06 01:16:12;;;;;;;4.30;2.00;;;;;;;;;;5054939;28;20215;-85
2022/08/06 01:18:46;;;;;;;2.63;2.00;;;;;;;;;;5054219;28;20233;-85
2022/08/06 01:21:23;;;;;;;2.30;2.10;;;;;;;;;;5054269;28;20715;-85
2022/08/06 01:23:59;;;;;;;2.57;1.60;;;;;;;;;;5053869;28;20241;-85
2022/08/06 01:26:37;;;;;;;1.93;1.70;;;;;;;;;;5054661;28;20666;-85
2022/08/06 01:29:07;;;;;;;2.83;1.80;;;;;;;;;;5054049;28;20241;-85
2022/08/06 01:31:36;;;;;;;2.07;1.90;;;;;;;;;;5054518;28;20340;-85
2022/08/06 01:34:06;;;;;;;2.23;2.00;;;;;;;;;;5054203;28;20222;-85
2022/08/06 01:36:38;;;;;;;1.77;1.67;;;;;;;;;;5054523;28;20191;-85
2022/08/06 01:39:05;;;;;;;7.10;1.80;;;;;;;;;;5054080;28;20234;-85
2022/08/06 01:41:41;;;;;;;2.17;2.00;;;;;;;;;;5057870;28;20229;-85
2022/08/06 01:44:12;;;;;;;2.20;1.80;;;;;;;;;;5058166;28;20210;-85
2022/08/06 01:46:40;;;;;;;1.97;1.87;;;;;;;;;;5053039;28;20217;-85
2022/08/06 01:49:09;;;;;;;4.83;1.70;;;;;;;;;;5054597;28;20588;-85
2022/08/06 01:51:37;;;;;;;1.70;1.60;;;;;;;;;;5054087;28;20571;-86
2022/08/06 01:54:06;;;;;;;1.70;1.60;;;;;;;;;;5053746;28;20288;-85
2022/08/06 01:56:35;;;;;;;4.70;1.80;;;;;;;;;;5054435;28;20206;-85
2022/08/06 08:00:10;;;;;;;0.60;0.60;;;;;;;;;;5077614;22;20618;-82
2022/08/06 08:02:38;;;;;;;1.73;0.65;;;;;;;;;;5093861;28;20247;-81
2022/08/06 08:07:50;;;;;;;0.68;0.68;;;;;;;;;;5101220;28;20255;-81
2022/08/06 08:10:18;;;;;;;0.50;0.50;;;;;;;;;;5100812;28;20229;-80
2022/08/06 08:12:46;;;;;;;0.50;0.50;;;;;;;;;;5099256;28;20228;-81
2022/08/06 08:15:15;;;;;;;1.95;0.68;;;;;;;;;;5100883;28;20672;-80
2022/08/06 08:17:42;;;;;;;3.13;0.70;;;;;;;;;;5098777;28;20229;-80
2022/08/06 08:20:11;;;;;;;0.90;0.68;;;;;;;;;;5099736;28;20704;-79
2022/08/06 08:22:39;;;;;;;2.13;0.60;;;;;;;;;;5099100;28;20236;-81
2022/08/06 08:25:08;;;;;;;2.40;0.77;;;;;;;;;;5100358;28;20212;-81
2022/08/06 08:27:35;;;;;;;0.90;0.40;;;;;;;;;;5097225;28;20235;-80
2022/08/06 08:30:02;;;;;;;0.30;0.30;;;;;;;;;;5097581;28;20282;-82
2022/08/06 08:32:30;;;;;;;0.55;0.43;;;;;;;;;;5096430;28;20259;-81
2022/08/06 08:34:57;;;;;;;1.52;0.68;;;;;;;;;;5095339;28;20208;-81
2022/08/06 08:37:25;;;;;;;1.83;0.90;;;;;;;;;;5096919;28;20228;-81
2022/08/06 08:39:52;;;;;;;0.50;0.43;;;;;;;;;;5098952;28;20596;-81
2022/08/06 08:42:20;;;;;;;1.33;0.68;;;;;;;;;;5095196;28;20232;-81
2022/08/06 08:44:47;;;;;;;2.08;0.52;;;;;;;;;;5095698;28;20217;-81
2022/08/06 08:47:15;;;;;;;0.60;0.50;;;;;;;;;;5095787;28;20228;-81
2022/08/06 08:49:46;;;;;;;2.50;0.70;;;;;;;;;;5095869;28;20205;-81
2022/08/06 08:52:15;;;;;;;0.98;0.57;;;;;;;;;;5095019;28;20236;-81
2022/08/06 08:54:43;;;;;;;2.05;0.75;;;;;;;;;;5096185;28;20228;-81
2022/08/06 08:57:11;;;;;;;1.20;0.57;;;;;;;;;;5094942;28;20614;-81
2022/08/06 08:59:38;;;;;;;0.60;0.40;;;;;;;;;;5083177;28;20208;-81
2022/08/06 09:02:06;;;;;;;1.55;0.73;;;;;;;;;;5094727;28;20726;-81
2022/08/06 09:04:33;;;;;;;1.60;0.73;;;;;;;;;;5095332;28;20703;-82
2022/08/06 09:07:03;;;;;;;1.10;0.50;;;;;;;;;;5098622;28;20234;-81
2022/08/06 09:09:30;;;;;;;2.47;0.50;;;;;;;;;;5099009;28;20197;-82
2022/08/06 09:11:57;;;;;;;1.55;0.80;;;;;;;;;;5095271;28;20314;-80
2022/08/06 09:14:26;;;;;;;1.17;0.50;;;;;;;;;;5097259;28;20201;-82
2022/08/06 09:16:53;;;;;;;0.88;0.43;;;;;;;;;;5094235;28;20212;-82
2022/08/06 09:19:20;;;;;;;0.40;0.40;;;;;;;;;;5094596;28;20684;-82
2022/08/06 09:21:47;;;;;;;0.45;0.40;;;;;;;;;;5094893;28;20232;-82
2022/08/06 09:24:15;;;;;;;0.80;0.50;;;;;;;;;;5094526;28;20250;-81
2022/08/06 09:27:02;;;;;;;1.45;0.80;;;;;;;;;;5095096;28;20230;-81
2022/08/06 09:29:29;;;;;;;0.73;0.47;;;;;;;;;;5095617;28;20224;-81
2022/08/06 09:31:56;;;;;;;1.45;0.70;;;;;;;;;;5094236;28;20638;-81
2022/08/06 09:34:23;;;;;;;2.15;0.40;;;;;;;;;;5095240;28;20232;-81
2022/08/06 09:36:51;;;;;;;1.88;0.57;;;;;;;;;;5094777;28;20205;-81
2022/08/06 09:39:31;;;;;;;1.13;0.40;;;;;;;;;;5097976;28;20336;-81
2022/08/06 09:41:58;;;;;;;0.30;0.30;;;;;;;;;;5096239;28;20691;-82
2022/08/06 09:44:25;;;;;;;2.13;0.50;;;;;;;;;;5094352;28;20630;-87
2022/08/06 09:46:53;;;;;;;0.93;0.35;;;;;;;;;;5090001;28;20216;-86
2022/08/06 09:49:21;;;;;;;0.30;0.25;;;;;;;;;;5093743;28;20272;-85
2022/08/06 09:51:48;;;;;;;1.48;0.55;;;;;;;;;;5084832;28;20240;-83
2022/08/06 09:54:16;;;;;;;1.65;0.30;;;;;;;;;;5103745;28;20216;-85
2022/08/06 09:56:45;;;;;;;2.38;0.43;;;;;;;;;;5112094;28;20227;-87
2022/08/06 09:59:12;;;;;;;1.33;0.50;;;;;;;;;;5111135;28;20208;-87
2022/08/06 10:01:40;;;;;;;0.85;0.35;;;;;;;;;;5112039;28;20235;-87
2022/08/06 10:04:07;;;;;;;0.88;0.40;;;;;;;;;;5112226;28;20883;-86
2022/08/06 10:06:35;;;;;;;1.38;0.60;;;;;;;;;;5111597;28;20204;-84
2022/08/06 10:09:09;;;;;;;0.43;0.40;;;;;;;;;;5112476;28;20204;-87
2022/08/06 10:11:37;;;;;;;1.85;0.60;;;;;;;;;;5112894;28;20258;-89
2022/08/06 10:14:05;;;;;;;3.75;0.63;;;;;;;;;;5112589;28;20224;-87
2022/08/06 10:16:32;;;;;;;0.65;0.40;;;;;;;;;;5112345;28;20211;-86
2022/08/06 10:19:02;;;;;;;1.58;0.52;;;;;;;;;;5112329;28;20227;-87
2022/08/06 10:21:30;;;;;;;2.70;0.57;;;;;;;;;;5112717;28;20237;-87
2022/08/06 10:24:00;;;;;;;0.55;0.30;;;;;;;;;;5111298;28;20235;-87
2022/08/06 10:26:27;;;;;;;1.85;0.57;;;;;;;;;;5112241;28;20234;-85
2022/08/06 10:28:55;;;;;;;1.30;0.50;;;;;;;;;;5111810;28;20334;-86
2022/08/06 10:31:23;;;;;;;1.05;0.40;;;;;;;;;;5112055;28;20799;-86
2022/08/06 10:33:51;;;;;;;0.47;0.47;;;;;;;;;;5111003;28;20239;-87
2022/08/06 10:36:21;;;;;;;0.40;0.40;;;;;;;;;;5112565;28;20478;-87
2022/08/06 10:38:50;;;;;;;1.25;0.70;;;;;;;;;;5112411;28;20240;-87
2022/08/06 10:41:19;;;;;;;0.40;0.35;;;;;;;;;;5109628;28;20232;-87
2022/08/06 10:43:46;;;;;;;1.33;0.47;;;;;;;;;;5090456;28;20232;-85
2022/08/06 10:46:15;;;;;;;1.48;0.68;;;;;;;;;;5091355;28;20281;-87
2022/08/06 10:48:45;;;;;;;0.45;0.32;;;;;;;;;;5091987;28;20256;-88
2022/08/06 10:51:13;;;;;;;0.82;0.50;;;;;;;;;;5091689;28;20221;-88
2022/08/06 10:53:43;;;;;;;2.30;0.60;;;;;;;;;;5091129;28;20228;-88
2022/08/06 10:56:13;;;;;;;3.97;0.50;;;;;;;;;;5091862;28;20545;-87
2022/08/06 10:58:40;;;;;;;1.73;0.70;;;;;;;;;;5091710;28;20239;-88
2022/08/06 11:01:08;;;;;;;0.60;0.60;;;;;;;;;;5091187;28;20653;-87
2022/08/06 11:03:40;;;;;;;0.82;0.60;;;;;;;;;;5090554;28;20228;-86
2022/08/06 11:06:17;;;;;;;0.55;0.30;;;;;;;;;;5091927;28;20193;-86
2022/08/06 11:08:52;;;;;;;2.42;0.57;;;;;;;;;;5092062;28;20232;-87
2022/08/06 11:11:25;;;;;;;0.68;0.32;;;;;;;;;;5093651;28;20228;-87
2022/08/06 11:14:00;;;;;;;1.45;0.70;;;;;;;;;;5092389;28;20239;-87
2022/08/06 11:16:28;;;;;;;1.05;0.43;;;;;;;;;;5106929;28;20204;-88
2022/08/06 11:19:02;;;;;;;1.60;0.65;;;;;;;;;;5105261;28;20232;-86
2022/08/06 11:21:41;;;;;;;0.90;0.63;;;;;;;;;;5103860;28;20224;-87
2022/08/06 11:24:08;;;;;;;1.17;0.57;;;;;;;;;;5095333;28;20220;-87
2022/08/06 11:26:36;;;;;;;0.98;0.45;;;;;;;;;;5095621;28;20227;-87
2022/08/06 11:29:04;;;;;;;3.63;0.30;;;;;;;;;;5095608;28;20227;-87
2022/08/06 11:31:43;;;;;;;0.40;0.40;;;;;;;;;;5094808;28;20227;-87
2022/08/06 11:34:14;;;;;;;0.25;0.25;;;;;;;;;;5094672;28;20224;-88
2022/08/06 11:36:54;;;;;;;1.42;0.47;;;;;;;;;;5095853;28;20615;-88
2022/08/06 11:39:22;;;;;;;0.47;0.40;;;;;;;;;;5095616;28;20192;-88
2022/08/06 11:41:53;;;;;;;1.73;0.77;;;;;;;;;;5102935;28;20602;-87
2022/08/06 11:44:21;;;;;;;0.55;0.30;;;;;;;;;;5114638;28;20232;-86
2022/08/06 11:46:49;;;;;;;0.47;0.30;;;;;;;;;;5075627;28;20274;-84
2022/08/06 11:49:18;;;;;;;0.28;0.28;;;;;;;;;;5074859;28;20197;-87
2022/08/06 11:51:46;;;;;;;1.13;1.02;;;;;;;;;;5074167;28;20225;-87
2022/08/06 11:54:16;;;;;;;0.73;0.40;;;;;;;;;;5074265;28;20282;-88
2022/08/06 11:57:02;;;;;;;0.38;0.22;;;;;;;;;;5075240;28;20259;-88
2022/08/06 11:59:29;;;;;;;0.38;0.38;;;;;;;;;;5076237;28;20691;-88
2022/08/06 12:01:57;;;;;;;1.40;0.45;;;;;;;;;;5073801;28;20231;-87
2022/08/06 12:04:44;;;;;;;1.60;0.50;;;;;;;;;;5075003;28;20208;-82
2022/08/06 12:07:18;;;;;;;0.73;0.32;;;;;;;;;;5075859;28;20228;-80
2022/08/06 12:09:47;;;;;;;0.20;0.20;;;;;;;;;;5077610;28;20204;-81
2022/08/06 12:12:32;;;;;;;0.43;0.43;;;;;;;;;;5075249;28;20440;-82
2022/08/06 12:15:00;;;;;;;1.63;0.75;;;;;;;;;;5076357;28;20229;-82
2022/08/06 12:17:28;;;;;;;0.52;0.52;;;;;;;;;;5073956;28;20232;-83
2022/08/06 12:19:57;;;;;;;2.08;0.60;;;;;;;;;;5073875;28;20268;-83
2022/08/06 12:22:24;;;;;;;0.65;0.30;;;;;;;;;;5073501;28;20237;-83
2022/08/06 12:24:54;;;;;;;0.85;0.40;;;;;;;;;;5074256;28;20624;-83
2022/08/06 12:27:21;;;;;;;0.25;0.25;;;;;;;;;;5077485;28;20224;-82
2022/08/06 12:29:49;;;;;;;2.30;1.50;;;;;;;;;;5076573;28;20225;-82
2022/08/06 12:32:22;;;;;;;1.35;0.45;;;;;;;;;;5073857;28;20228;-83
2022/08/06 12:34:49;;;;;;;0.50;0.38;;;;;;;;;;5080684;28;20229;-81
2022/08/06 12:37:17;;;;;;;0.35;0.30;;;;;;;;;;5075688;28;20236;-81
2022/08/06 12:42:31;;;;;;;0.20;0.20;;;;;;;;;;5100137;28;20247;-82
2022/08/06 12:44:58;;;;;;;0.85;0.32;;;;;;;;;;5094475;28;20668;-83
2022/08/06 12:47:26;;;;;;;2.38;0.50;;;;;;;;;;5077959;28;20232;-82
2022/08/06 12:49:53;;;;;;;0.50;0.35;;;;;;;;;;5086095;28;20252;-82
2022/08/06 12:52:21;;;;;;;0.65;0.30;;;;;;;;;;5078017;28;20233;-83
2022/08/06 12:54:48;;;;;;;0.80;0.30;;;;;;;;;;5073510;28;20221;-83
2022/08/06 12:57:21;;;;;;;0.43;0.40;;;;;;;;;;5072446;28;20232;-83
2022/08/06 12:59:51;;;;;;;0.60;0.50;;;;;;;;;;5099979;28;20223;-82
2022/08/06 13:02:19;;;;;;;0.80;0.40;;;;;;;;;;5114090;28;20641;-81
2022/08/06 13:04:48;;;;;;;1.00;0.38;;;;;;;;;;5114442;28;20233;-82
2022/08/06 13:07:15;;;;;;;1.45;0.60;;;;;;;;;;5114162;28;20231;-80
2022/08/06 13:09:43;;;;;;;0.40;0.40;;;;;;;;;;5115096;28;20208;-82
2022/08/06 13:12:14;;;;;;;0.80;0.30;;;;;;;;;;5117697;28;20247;-82
2022/08/06 13:14:52;;;;;;;2.15;0.45;;;;;;;;;;5115583;28;20223;-81
2022/08/06 13:17:21;;;;;;;0.40;0.30;;;;;;;;;;5114715;28;20713;-82
2022/08/06 13:19:52;;;;;;;0.82;0.43;;;;;;;;;;5115784;28;20231;-82
2022/08/06 13:22:19;;;;;;;2.05;0.40;;;;;;;;;;5112553;28;20259;-82
2022/08/06 13:24:46;;;;;;;0.50;0.50;;;;;;;;;;5114460;28;20724;-82
2022/08/06 13:27:13;;;;;;;0.55;0.40;;;;;;;;;;5113899;28;20292;-82
2022/08/06 13:29:59;;;;;;;0.40;0.40;;;;;;;;;;5113963;28;20257;-83
2022/08/06 13:32:27;;;;;;;1.15;0.30;;;;;;;;;;5113134;28;20219;-82
2022/08/06 13:34:56;;;;;;;0.20;0.20;;;;;;;;;;5117576;28;20228;-82
2022/08/06 13:37:43;;;;;;;0.60;0.30;;;;;;;;;;5112534;28;20296;-82
2022/08/06 13:40:10;;;;;;;0.40;0.40;;;;;;;;;;5114356;28;20262;-82
2022/08/06 13:42:48;;;;;;;2.15;0.75;;;;;;;;;;5112997;28;20280;-82
2022/08/06 13:45:24;;;;;;;0.40;0.38;;;;;;;;;;5107318;28;20204;-82
2022/08/06 13:47:52;;;;;;;0.70;0.40;;;;;;;;;;5072509;28;20229;-82
2022/08/06 13:50:19;;;;;;;0.32;0.20;;;;;;;;;;5075091;28;20225;-82
2022/08/06 13:52:46;;;;;;;0.30;0.30;;;;;;;;;;5072365;28;20224;-82
2022/08/06 13:55:13;;;;;;;2.17;0.45;;;;;;;;;;5074335;28;20229;-82
2022/08/06 13:57:40;;;;;;;1.63;0.77;;;;;;;;;;5073260;28;20233;-82
2022/08/06 14:00:08;;;;;;;1.85;0.50;;;;;;;;;;5074932;28;20259;-83
2022/08/06 14:02:37;;;;;;;2.08;0.50;;;;;;;;;;5071524;28;20233;-84
2022/08/06 14:05:04;;;;;;;0.50;0.50;;;;;;;;;;5072834;28;20206;-84
2022/08/06 14:07:31;;;;;;;1.05;0.40;;;;;;;;;;5074780;28;20309;-85
2022/08/06 14:09:58;;;;;;;3.00;0.43;;;;;;;;;;5073717;28;20232;-83
2022/08/06 14:12:25;;;;;;;0.43;0.38;;;;;;;;;;5072512;28;20228;-83
2022/08/06 14:14:52;;;;;;;1.27;0.25;;;;;;;;;;5074833;28;20229;-82
2022/08/06 14:17:19;;;;;;;0.77;0.40;;;;;;;;;;5073718;28;20229;-84
2022/08/06 14:19:49;;;;;;;0.43;0.43;;;;;;;;;;5072508;28;20213;-83
2022/08/06 14:22:16;;;;;;;1.08;0.60;;;;;;;;;;5071264;28;20253;-84
2022/08/06 14:24:43;;;;;;;0.47;0.47;;;;;;;;;;5072687;28;20623;-84
2022/08/06 14:27:10;;;;;;;2.30;0.38;;;;;;;;;;5072497;28;20229;-84
2022/08/06 14:29:38;;;;;;;0.40;0.40;;;;;;;;;;5072882;28;20204;-83
2022/08/06 14:32:05;;;;;;;0.98;0.55;;;;;;;;;;5072925;28;20236;-83
2022/08/06 14:34:32;;;;;;;0.75;0.40;;;;;;;;;;5075566;28;20233;-83
2022/08/06 14:37:00;;;;;;;0.43;0.43;;;;;;;;;;5072887;28;20240;-83
2022/08/06 14:39:27;;;;;;;0.90;0.57;;;;;;;;;;5104388;28;20228;-84
2022/08/06 14:44:59;;;;;;;2.88;0.50;;;;;;;;;;5110288;28;20210;-83
2022/08/06 14:47:26;;;;;;;0.40;0.40;;;;;;;;;;5091351;28;20239;-85
2022/08/06 14:49:53;;;;;;;1.55;0.47;;;;;;;;;;5089306;28;20232;-84
2022/08/06 14:52:22;;;;;;;0.22;0.22;;;;;;;;;;5085872;28;20225;-83
2022/08/06 14:54:50;;;;;;;1.65;0.30;;;;;;;;;;5073179;28;20316;-83
2022/08/06 14:57:17;;;;;;;3.33;0.60;;;;;;;;;;5073593;28;20257;-83
2022/08/06 14:59:44;;;;;;;0.45;0.25;;;;;;;;;;5073039;28;20209;-85
2022/08/06 15:02:11;;;;;;;0.28;0.25;;;;;;;;;;5072750;28;20235;-84
2022/08/06 15:04:38;;;;;;;1.45;0.28;;;;;;;;;;5073146;28;20575;-83
2022/08/06 15:07:05;;;;;;;0.73;0.40;;;;;;;;;;5073467;28;20229;-82
2022/08/06 15:09:34;;;;;;;0.40;0.40;;;;;;;;;;5073029;28;20216;-83
2022/08/06 15:12:01;;;;;;;0.75;0.47;;;;;;;;;;5071834;28;20240;-83
2022/08/06 15:14:29;;;;;;;0.70;0.50;;;;;;;;;;5086400;28;20220;-83
2022/08/06 15:16:56;;;;;;;0.95;0.57;;;;;;;;;;5110678;28;20235;-84
2022/08/06 15:19:23;;;;;;;1.35;0.68;;;;;;;;;;5094055;28;20208;-83
2022/08/06 15:21:50;;;;;;;0.68;0.63;;;;;;;;;;5108466;28;20231;-84
2022/08/06 15:24:17;;;;;;;2.53;0.43;;;;;;;;;;5117596;28;20259;-84
2022/08/06 15:26:45;;;;;;;0.93;0.28;;;;;;;;;;5118010;28;20185;-83
2022/08/06 15:29:13;;;;;;;1.52;0.40;;;;;;;;;;5114084;28;20208;-83
2022/08/06 15:31:40;;;;;;;0.65;0.45;;;;;;;;;;5122758;28;20598;-83
2022/08/06 15:34:07;;;;;;;1.63;0.52;;;;;;;;;;5114943;28;20444;-83
2022/08/06 15:36:34;;;;;;;1.55;0.47;;;;;;;;;;5114811;28;20261;-84
2022/08/06 15:39:02;;;;;;;1.45;0.40;;;;;;;;;;5100499;28;20236;-84
2022/08/06 15:41:30;;;;;;;1.17;0.30;;;;;;;;;;5107446;28;20220;-84
2022/08/06 15:43:59;;;;;;;0.60;0.35;;;;;;;;;;5113736;28;20228;-84
2022/08/06 15:46:26;;;;;;;1.48;0.43;;;;;;;;;;5114809;28;20204;-84
2022/08/06 15:48:53;;;;;;;1.55;0.52;;;;;;;;;;5112723;28;20235;-84
2022/08/06 15:51:23;;;;;;;1.25;0.38;;;;;;;;;;5113677;28;20235;-82
2022/08/06 15:53:50;;;;;;;0.85;0.57;;;;;;;;;;5113956;28;20255;-83
2022/08/06 15:56:17;;;;;;;1.83;0.40;;;;;;;;;;5116449;28;20235;-84
2022/08/06 15:58:44;;;;;;;0.43;0.40;;;;;;;;;;5113556;28;20231;-84
2022/08/06 16:01:13;;;;;;;1.95;0.50;;;;;;;;;;5112302;28;20239;-84
2022/08/06 16:03:40;;;;;;;0.35;0.35;;;;;;;;;;5112704;28;20607;-83
2022/08/06 16:06:07;;;;;;;0.77;0.73;;;;;;;;;;5113766;28;20199;-83
2022/08/06 16:08:34;;;;;;;2.60;0.60;;;;;;;;;;5115965;28;20284;-83
2022/08/06 16:11:01;;;;;;;1.15;0.30;;;;;;;;;;5115971;28;20650;-83
2022/08/06 16:13:28;;;;;;;0.38;0.38;;;;;;;;;;5116099;28;20243;-84
2022/08/06 16:15:55;;;;;;;1.95;0.60;;;;;;;;;;5116172;28;20228;-83
2022/08/06 16:18:24;;;;;;;3.00;0.50;;;;;;;;;;5115670;28;20236;-83
2022/08/06 16:20:51;;;;;;;0.65;0.38;;;;;;;;;;5116254;28;20242;-83
2022/08/06 16:23:20;;;;;;;2.13;0.47;;;;;;;;;;5116032;28;20231;-82
2022/08/06 16:25:48;;;;;;;1.25;0.30;;;;;;;;;;5116347;28;20298;-84
2022/08/06 16:28:15;;;;;;;1.60;0.20;;;;;;;;;;5115214;28;20734;-83
2022/08/06 16:30:42;;;;;;;0.95;0.60;;;;;;;;;;5122109;28;20220;-83
2022/08/06 16:33:09;;;;;;;1.80;0.40;;;;;;;;;;5115893;28;20260;-84
2022/08/06 16:35:39;;;;;;;0.30;0.30;;;;;;;;;;5116047;28;20227;-83
2022/08/06 16:38:06;;;;;;;1.05;0.55;;;;;;;;;;5115120;28;20259;-82
2022/08/06 16:40:33;;;;;;;1.88;0.63;;;;;;;;;;5116188;28;20854;-83
2022/08/06 16:43:01;;;;;;;2.85;0.50;;;;;;;;;;5115665;28;20236;-84
2022/08/06 16:45:28;;;;;;;0.47;0.40;;;;;;;;;;5116439;28;20208;-84
2022/08/06 16:47:55;;;;;;;0.35;0.35;;;;;;;;;;5115242;28;20232;-83
2022/08/06 16:50:23;;;;;;;0.40;0.40;;;;;;;;;;5116473;28;20227;-83
2022/08/06 16:52:52;;;;;;;0.77;0.63;;;;;;;;;;5114583;28;20613;-83
2022/08/06 16:55:19;;;;;;;1.70;0.40;;;;;;;;;;5116563;28;20223;-83
2022/08/06 16:57:46;;;;;;;0.57;0.38;;;;;;;;;;5115591;28;20722;-83
2022/08/06 17:00:15;;;;;;;0.82;0.45;;;;;;;;;;5115989;28;20236;-83
2022/08/06 17:02:42;;;;;;;0.13;0.13;;;;;;;;;;5114786;28;20251;-83
2022/08/06 17:05:10;;;;;;;1.73;0.55;;;;;;;;;;5115237;28;20204;-83
2022/08/06 17:07:38;;;;;;;0.88;0.50;;;;;;;;;;5115102;28;20303;-82
2022/08/06 17:10:07;;;;;;;0.30;0.30;;;;;;;;;;5098132;28;20225;-83
2022/08/06 17:12:34;;;;;;;1.50;0.40;;;;;;;;;;5090926;28;20224;-83
2022/08/06 17:15:02;;;;;;;0.93;0.30;;;;;;;;;;5095184;28;20220;-83
2022/08/06 17:17:29;;;;;;;6.38;3.80;;;;;;;;;;5099549;28;20227;-83
2022/08/06 17:19:56;;;;;;;0.40;0.40;;;;;;;;;;5115394;28;20228;-83
2022/08/06 17:22:23;;;;;;;0.77;0.30;;;;;;;;;;5114757;28;20228;-84
2022/08/06 17:24:50;;;;;;;1.33;0.55;;;;;;;;;;5115115;28;20204;-83
2022/08/06 17:27:18;;;;;;;1.25;0.38;;;;;;;;;;5114283;28;20236;-84
2022/08/06 17:29:46;;;;;;;0.77;0.50;;;;;;;;;;5115549;28;20204;-83
2022/08/06 17:32:14;;;;;;;0.75;0.50;;;;;;;;;;5114225;28;20231;-84
2022/08/06 17:34:41;;;;;;;2.15;0.50;;;;;;;;;;5114582;28;20200;-83
2022/08/06 17:37:08;;;;;;;1.35;0.57;;;;;;;;;;5114437;28;20248;-84
2022/08/06 17:39:35;;;;;;;0.30;0.30;;;;;;;;;;5114740;28;20200;-84
2022/08/06 17:42:02;;;;;;;1.48;0.35;;;;;;;;;;5114092;28;20231;-84
2022/08/06 17:44:31;;;;;;;1.48;0.40;;;;;;;;;;5114710;28;20208;-83
2022/08/06 17:46:58;;;;;;;1.85;0.50;;;;;;;;;;5115318;28;20719;-84
2022/08/06 17:49:25;;;;;;;1.85;0.45;;;;;;;;;;5114245;28;20204;-83
2022/08/06 17:51:52;;;;;;;0.40;0.40;;;;;;;;;;5114613;28;20231;-84
2022/08/06 17:54:19;;;;;;;1.25;0.63;;;;;;;;;;5114609;28;20211;-82
2022/08/06 17:56:46;;;;;;;3.13;0.65;;;;;;;;;;5113674;28;20215;-84
2022/08/06 17:59:13;;;;;;;1.02;0.50;;;;;;;;;;5114306;28;20564;-83
2022/08/06 18:01:41;;;;;;;0.65;0.35;;;;;;;;;;5113160;28;20239;-84
2022/08/06 18:04:09;;;;;;;0.38;0.38;;;;;;;;;;5114389;28;20204;-84
2022/08/06 18:06:36;;;;;;;1.17;0.30;;;;;;;;;;5113629;28;20204;-84
2022/08/06 18:09:04;;;;;;;1.45;0.30;;;;;;;;;;5112224;28;20671;-85
2022/08/06 18:11:31;;;;;;;2.08;0.32;;;;;;;;;;5112758;28;20715;-86
2022/08/06 18:13:58;;;;;;;0.93;0.57;;;;;;;;;;5112967;28;20240;-86
2022/08/06 18:16:26;;;;;;;0.68;0.38;;;;;;;;;;5112974;28;20235;-85
2022/08/06 18:18:55;;;;;;;1.23;0.50;;;;;;;;;;5112349;28;20300;-86
2022/08/06 18:21:22;;;;;;;1.55;0.50;;;;;;;;;;5113265;28;20262;-86
2022/08/06 18:23:50;;;;;;;0.57;0.50;;;;;;;;;;5124922;28;20372;-86
2022/08/06 18:26:17;;;;;;;1.10;0.50;;;;;;;;;;5113929;28;20341;-88
2022/08/06 18:28:44;;;;;;;2.65;0.75;;;;;;;;;;5112937;28;20231;-86
2022/08/06 18:31:11;;;;;;;4.47;0.68;;;;;;;;;;5114088;28;20226;-85
2022/08/06 18:33:39;;;;;;;2.13;0.80;;;;;;;;;;5113144;28;20231;-86
2022/08/06 18:36:08;;;;;;;1.08;0.52;;;;;;;;;;5113587;28;20703;-85
2022/08/06 18:38:35;;;;;;;1.65;0.73;;;;;;;;;;5112920;28;20293;-86
2022/08/06 18:41:02;;;;;;;0.85;0.57;;;;;;;;;;5113794;28;20273;-86
2022/08/06 18:43:30;;;;;;;0.70;0.50;;;;;;;;;;5112375;28;20236;-86
2022/08/06 18:45:57;;;;;;;0.75;0.55;;;;;;;;;;5120282;28;20204;-85
2022/08/06 18:48:24;;;;;;;1.10;0.43;;;;;;;;;;5119541;28;20235;-86
2022/08/06 18:50:52;;;;;;;0.40;0.32;;;;;;;;;;5114990;28;20224;-86
2022/08/06 18:53:20;;;;;;;1.48;0.60;;;;;;;;;;5113132;28;20232;-85
2022/08/06 18:55:47;;;;;;;1.05;0.40;;;;;;;;;;5113490;28;20228;-86
2022/08/06 18:58:14;;;;;;;2.10;0.55;;;;;;;;;;5114108;28;20248;-86
2022/08/06 19:00:43;;;;;;;0.32;0.32;;;;;;;;;;5116161;28;20228;-86
2022/08/06 19:03:10;;;;;;;3.03;0.57;;;;;;;;;;5116859;28;20228;-85
2022/08/06 19:05:37;;;;;;;0.77;0.40;;;;;;;;;;5115090;28;20558;-86
2022/08/06 19:08:05;;;;;;;0.68;0.50;;;;;;;;;;5114835;28;20239;-86
2022/08/06 19:10:33;;;;;;;1.38;0.50;;;;;;;;;;5113877;28;20734;-85
2022/08/06 19:13:00;;;;;;;0.57;0.52;;;;;;;;;;5115756;28;20243;-85
2022/08/06 19:15:27;;;;;;;0.52;0.52;;;;;;;;;;5122299;28;20244;-85
2022/08/06 19:17:54;;;;;;;1.50;0.50;;;;;;;;;;5124567;28;20630;-85
2022/08/06 19:20:21;;;;;;;1.63;0.60;;;;;;;;;;5125841;28;20215;-85
2022/08/06 19:22:48;;;;;;;1.33;0.65;;;;;;;;;;5121838;28;20640;-86
2022/08/06 19:25:15;;;;;;;3.10;0.50;;;;;;;;;;5121559;28;20204;-85
2022/08/06 19:27:44;;;;;;;0.65;0.52;;;;;;;;;;5115912;28;20687;-85
2022/08/06 19:30:11;;;;;;;1.33;0.50;;;;;;;;;;5116641;28;20235;-85
2022/08/06 19:32:39;;;;;;;0.85;0.43;;;;;;;;;;5112441;28;20243;-86
2022/08/06 19:35:06;;;;;;;2.22;0.88;;;;;;;;;;5113625;28;20208;-86
2022/08/06 19:37:34;;;;;;;0.52;0.43;;;;;;;;;;5112485;28;20228;-86
2022/08/06 19:42:47;;;;;;;1.27;0.50;;;;;;;;;;5116019;28;20260;-86
2022/08/06 19:45:15;;;;;;;0.47;0.47;;;;;;;;;;5118203;28;20562;-86
2022/08/06 19:47:42;;;;;;;4.03;0.90;;;;;;;;;;5118510;28;20252;-86
2022/08/06 19:50:09;;;;;;;1.65;0.63;;;;;;;;;;5119417;28;20239;-86
2022/08/06 19:52:36;;;;;;;0.57;0.47;;;;;;;;;;5117222;28;20232;-86
2022/08/06 19:55:03;;;;;;;0.50;0.50;;;;;;;;;;5118444;28;20215;-86
2022/08/06 19:57:30;;;;;;;1.00;0.80;;;;;;;;;;5116993;28;20240;-86
2022/08/06 19:59:59;;;;;;;0.90;0.60;;;;;;;;;;5119329;28;20235;-85
2022/08/06 20:02:26;;;;;;;1.65;0.60;;;;;;;;;;5121299;28;20228;-85
2022/08/06 20:04:53;;;;;;;0.75;0.50;;;;;;;;;;5122523;28;20241;-84
2022/08/06 20:07:20;;;;;;;2.60;0.55;;;;;;;;;;5120991;28;20228;-85
2022/08/06 20:09:47;;;;;;;0.60;0.60;;;;;;;;;;5119639;28;20700;-84
2022/08/06 20:12:14;;;;;;;1.10;0.70;;;;;;;;;;5117521;28;20695;-85
2022/08/06 20:14:41;;;;;;;0.68;0.57;;;;;;;;;;5116943;28;20208;-85
2022/08/06 20:17:10;;;;;;;1.00;0.60;;;;;;;;;;5117403;28;20239;-84
2022/08/06 20:19:37;;;;;;;0.98;0.55;;;;;;;;;;5116187;28;20207;-85
2022/08/06 20:22:04;;;;;;;1.13;0.35;;;;;;;;;;5115410;28;20235;-84
2022/08/06 20:24:31;;;;;;;2.35;0.57;;;;;;;;;;5115491;28;20215;-85
2022/08/06 20:26:58;;;;;;;1.50;0.73;;;;;;;;;;5115529;28;20239;-85
2022/08/06 20:29:25;;;;;;;0.45;0.45;;;;;;;;;;5115520;28;20208;-85
2022/08/06 20:31:52;;;;;;;1.00;0.57;;;;;;;;;;5114708;28;20598;-85
2022/08/06 20:34:20;;;;;;;0.50;0.50;;;;;;;;;;5115480;28;20204;-85
2022/08/06 20:36:47;;;;;;;0.88;0.75;;;;;;;;;;5114404;28;20232;-85
2022/08/06 20:39:14;;;;;;;0.98;0.70;;;;;;;;;;5115241;28;20216;-85
2022/08/06 20:41:42;;;;;;;0.80;0.80;;;;;;;;;;5114499;28;20606;-85
2022/08/06 20:44:09;;;;;;;0.73;0.55;;;;;;;;;;5115379;28;20212;-86
2022/08/06 20:46:36;;;;;;;1.48;0.63;;;;;;;;;;5114731;28;20208;-85
2022/08/06 20:49:05;;;;;;;0.82;0.50;;;;;;;;;;5115219;28;20211;-85
2022/08/06 20:51:34;;;;;;;2.22;0.77;;;;;;;;;;5114417;28;20246;-85
2022/08/06 20:54:01;;;;;;;0.68;0.45;;;;;;;;;;5114559;28;20231;-85
2022/08/06 20:56:28;;;;;;;0.85;0.85;;;;;;;;;;5114987;28;20220;-84
2022/08/06 20:58:55;;;;;;;2.08;0.50;;;;;;;;;;5114371;28;20731;-84
2022/08/06 21:01:22;;;;;;;0.65;0.60;;;;;;;;;;5114379;28;20235;-85
2022/08/06 21:03:49;;;;;;;0.70;0.70;;;;;;;;;;5114230;28;20239;-85